Time;durP1;ratioP1;P1;durP2;ratioP2;P2;SDS_P1;SDS_P2;PMS_P1;PMS_P2;Temp;Humidity;BMP_temperature;BMP_pressure;BME280_temperature;BME280_humidity;BME280_pressure;Samples;Min_cycle;Max_cycle;Signal;HPM_P1;HPM_P2
2021/09/03 00:02:16;;;;;;;25.17;11.90;;;11.60;99.90;;;;;;7371900;19;20035;-60
2021/09/03 00:04:41;;;;;;;27.17;12.00;;;11.60;99.90;;;;;;7373664;19;20836;-60
2021/09/03 00:07:07;;;;;;;23.38;11.45;;;11.60;99.90;;;;;;7368871;19;20022;-60
2021/09/03 00:09:32;;;;;;;20.25;11.00;;;11.60;99.90;;;;;;7371203;19;20144;-60
2021/09/03 00:11:58;;;;;;;18.67;9.93;;;11.70;99.90;;;;;;7370010;19;20036;-60
2021/09/03 00:14:23;;;;;;;20.20;10.73;;;11.70;99.90;;;;;;7369795;19;20014;-59
2021/09/03 00:16:49;;;;;;;26.88;12.40;;;11.70;99.90;;;;;;7369890;19;20053;-60
2021/09/03 00:19:14;;;;;;;28.05;12.48;;;11.70;99.90;;;;;;7368565;19;20021;-60
2021/09/03 00:21:40;;;;;;;18.33;10.15;;;11.60;99.90;;;;;;7370544;19;20589;-60
2021/09/03 00:24:05;;;;;;;21.98;11.55;;;11.60;99.90;;;;;;7368276;19;20026;-60
2021/09/03 00:26:31;;;;;;;23.02;11.20;;;11.60;99.90;;;;;;7371384;19;20800;-60
2021/09/03 00:28:56;;;;;;;20.85;11.20;;;11.60;99.90;;;;;;7368634;19;20022;-60
2021/09/03 00:31:22;;;;;;;27.20;12.10;;;11.60;99.90;;;;;;7369958;19;20022;-60
2021/09/03 00:33:47;;;;;;;24.35;11.02;;;11.60;99.90;;;;;;7370458;19;20047;-60
2021/09/03 00:36:13;;;;;;;21.77;11.07;;;11.50;99.90;;;;;;7369650;19;20057;-60
2021/09/03 00:38:38;;;;;;;20.60;11.15;;;11.50;99.90;;;;;;7366063;19;20999;-60
2021/09/03 00:41:03;;;;;;;22.23;11.05;;;11.40;99.90;;;;;;7370519;19;20098;-60
2021/09/03 00:43:29;;;;;;;19.55;10.45;;;11.30;99.90;;;;;;7369600;19;20586;-60
2021/09/03 00:45:54;;;;;;;24.23;11.70;;;11.30;99.90;;;;;;7371410;19;20027;-60
2021/09/03 00:48:20;;;;;;;22.42;11.10;;;11.30;99.90;;;;;;7368826;19;20040;-60
2021/09/03 00:50:45;;;;;;;20.67;11.45;;;11.20;99.90;;;;;;7371276;19;20133;-59
2021/09/03 00:53:11;;;;;;;18.00;10.98;;;11.10;99.90;;;;;;7369213;19;20818;-60
2021/09/03 00:55:36;;;;;;;19.42;10.30;;;11.10;99.90;;;;;;7371016;19;20593;-60
2021/09/03 00:58:02;;;;;;;24.50;12.10;;;11.10;99.90;;;;;;7368300;19;20495;-59
2021/09/03 01:00:27;;;;;;;22.60;11.23;;;11.10;99.90;;;;;;7369581;19;20011;-59
2021/09/03 01:02:53;;;;;;;22.23;11.65;;;11.00;99.90;;;;;;7370172;19;20559;-60
2021/09/03 01:05:22;;;;;;;21.20;11.18;;;11.00;99.90;;;;;;7369471;19;20029;-60
2021/09/03 01:07:48;;;;;;;27.25;11.63;;;11.00;99.90;;;;;;7367402;19;20014;-59
2021/09/03 01:10:13;;;;;;;21.40;11.25;;;11.00;99.90;;;;;;7370226;19;20505;-59
2021/09/03 01:12:39;;;;;;;26.15;11.60;;;11.00;99.90;;;;;;7370023;19;20048;-59
2021/09/03 01:15:07;;;;;;;26.63;11.95;;;10.90;99.90;;;;;;7369727;19;20097;-60
2021/09/03 01:17:33;;;;;;;22.90;11.20;;;10.90;99.90;;;;;;7369441;19;20023;-60
2021/09/03 01:19:59;;;;;;;26.77;10.75;;;10.80;99.90;;;;;;7369072;19;20050;-60
2021/09/03 01:22:24;;;;;;;23.40;11.02;;;10.80;99.90;;;;;;7369905;19;20022;-60
2021/09/03 01:24:50;;;;;;;22.52;11.88;;;10.80;99.90;;;;;;7371292;19;20367;-60
2021/09/03 01:27:15;;;;;;;24.23;10.82;;;10.80;99.90;;;;;;7369179;19;20026;-60
2021/09/03 01:29:41;;;;;;;21.25;10.82;;;10.80;99.90;;;;;;7377539;19;20015;-60
2021/09/03 01:32:06;;;;;;;21.65;11.25;;;10.70;99.90;;;;;;7378402;19;20019;-60
2021/09/03 01:34:32;;;;;;;19.00;10.60;;;10.70;99.90;;;;;;7376828;19;20018;-60
2021/09/03 01:36:57;;;;;;;20.17;10.82;;;10.60;99.90;;;;;;7373360;19;20022;-60
2021/09/03 01:39:23;;;;;;;19.73;10.73;;;10.60;99.90;;;;;;7374526;19;20384;-59
2021/09/03 01:41:48;;;;;;;19.45;10.27;;;10.60;99.90;;;;;;7377866;19;20030;-60
2021/09/03 01:44:14;;;;;;;20.50;10.05;;;10.60;99.90;;;;;;7374806;19;20030;-60
2021/09/03 01:46:39;;;;;;;22.80;10.60;;;10.70;99.90;;;;;;7377675;19;20015;-60
2021/09/03 01:49:05;;;;;;;21.60;10.88;;;10.60;99.90;;;;;;7375234;19;20499;-60
2021/09/03 01:51:30;;;;;;;23.08;10.20;;;10.60;99.90;;;;;;7375820;19;20018;-60
2021/09/03 01:53:56;;;;;;;23.52;10.15;;;10.60;99.90;;;;;;7375375;19;20022;-60
2021/09/03 01:56:21;;;;;;;24.00;11.02;;;10.60;99.90;;;;;;7372421;19;20031;-60
2021/09/03 01:58:47;;;;;;;25.17;11.32;;;10.60;99.90;;;;;;7374622;19;20019;-60
2021/09/03 02:01:12;;;;;;;16.90;9.48;;;10.60;99.90;;;;;;7376154;19;20346;-60
2021/09/03 02:03:38;;;;;;;23.77;10.35;;;10.60;99.90;;;;;;7373524;19;20018;-60
2021/09/03 02:06:03;;;;;;;22.95;10.98;;;10.60;99.90;;;;;;7377246;19;20019;-60
2021/09/03 02:08:30;;;;;;;24.40;11.20;;;10.70;99.90;;;;;;7374015;19;20014;-60
2021/09/03 02:10:56;;;;;;;22.52;10.85;;;10.70;99.90;;;;;;7375273;19;20018;-60
2021/09/03 02:13:21;;;;;;;21.73;10.75;;;10.70;99.90;;;;;;7373680;19;20094;-59
2021/09/03 02:15:47;;;;;;;24.90;10.80;;;10.70;99.90;;;;;;7376550;19;20019;-60
2021/09/03 02:18:12;;;;;;;29.67;12.00;;;10.70;99.90;;;;;;7373554;19;20616;-60
2021/09/03 02:20:38;;;;;;;21.40;10.88;;;10.60;99.90;;;;;;7374622;19;20421;-59
2021/09/03 02:23:03;;;;;;;19.35;11.23;;;10.60;99.90;;;;;;7375002;19;20022;-60
2021/09/03 02:25:29;;;;;;;24.02;11.57;;;10.60;99.90;;;;;;7373164;19;20483;-60
2021/09/03 02:27:54;;;;;;;24.33;12.48;;;10.70;99.90;;;;;;7374520;19;20794;-60
2021/09/03 02:30:20;;;;;;;30.40;11.85;;;10.80;99.90;;;;;;7374663;19;20352;-59
2021/09/03 02:32:45;;;;;;;24.05;12.02;;;10.90;99.90;;;;;;7373546;19;20110;-60
2021/09/03 02:35:11;;;;;;;24.00;12.57;;;10.90;99.90;;;;;;7374708;19;20024;-60
2021/09/03 02:37:36;;;;;;;28.08;13.05;;;10.90;99.90;;;;;;7373048;19;20030;-60
2021/09/03 02:40:02;;;;;;;25.73;11.68;;;10.90;99.90;;;;;;7370923;19;20039;-59
2021/09/03 02:42:27;;;;;;;24.35;12.32;;;10.90;99.90;;;;;;7371954;19;20042;-60
2021/09/03 02:44:53;;;;;;;28.52;11.60;;;10.90;99.90;;;;;;7374319;19;20026;-60
2021/09/03 02:47:18;;;;;;;27.30;11.50;;;10.90;99.90;;;;;;7373763;19;20018;-60
2021/09/03 02:49:43;;;;;;;20.08;10.40;;;10.80;99.90;;;;;;7370142;19;20059;-60
2021/09/03 02:52:09;;;;;;;23.52;10.68;;;10.70;99.90;;;;;;7373393;19;20025;-60
2021/09/03 02:54:34;;;;;;;25.08;10.65;;;10.70;99.90;;;;;;7374821;19;20486;-60
2021/09/03 02:57:00;;;;;;;23.55;10.48;;;10.70;99.90;;;;;;7374190;19;20022;-60
2021/09/03 02:59:25;;;;;;;27.02;10.18;;;10.60;99.90;;;;;;7372325;19;20888;-60
2021/09/03 03:01:51;;;;;;;18.75;10.32;;;10.50;99.90;;;;;;7375056;19;20022;-60
2021/09/03 03:04:16;;;;;;;25.80;11.52;;;10.50;99.90;;;;;;7368995;19;20022;-60
2021/09/03 03:06:42;;;;;;;16.48;9.98;;;10.50;99.90;;;;;;7373687;19;20011;-60
2021/09/03 03:09:08;;;;;;;16.45;9.60;;;10.50;99.90;;;;;;7373943;19;20040;-59
2021/09/03 03:11:33;;;;;;;15.05;9.10;;;10.50;99.90;;;;;;7372772;19;20633;-60
2021/09/03 03:14:03;;;;;;;20.02;9.68;;;10.40;99.90;;;;;;7373202;19;20049;-59
2021/09/03 03:16:29;;;;;;;18.05;9.07;;;10.40;99.90;;;;;;7373730;19;20026;-59
2021/09/03 03:18:54;;;;;;;18.35;9.15;;;10.30;99.90;;;;;;7370680;19;20033;-59
2021/09/03 03:21:20;;;;;;;16.05;9.55;;;10.40;99.90;;;;;;7372935;19;20014;-60
2021/09/03 03:23:45;;;;;;;17.63;9.30;;;10.50;99.90;;;;;;7372083;19;20018;-60
2021/09/03 03:26:11;;;;;;;18.17;9.07;;;10.50;99.90;;;;;;7372998;19;20021;-60
2021/09/03 03:28:36;;;;;;;16.45;9.45;;;10.50;99.90;;;;;;7373815;19;20014;-60
2021/09/03 03:31:02;;;;;;;17.27;8.52;;;10.50;99.90;;;;;;7372630;19;20018;-60
2021/09/03 03:33:27;;;;;;;17.63;8.32;;;10.60;99.90;;;;;;7372424;19;20021;-60
2021/09/03 03:35:53;;;;;;;17.63;9.15;;;10.60;99.90;;;;;;7373455;19;20440;-60
2021/09/03 03:38:18;;;;;;;16.25;8.60;;;10.60;99.90;;;;;;7372710;19;20010;-59
2021/09/03 03:40:44;;;;;;;18.80;9.25;;;10.60;99.90;;;;;;7370647;19;20849;-59
2021/09/03 03:43:09;;;;;;;21.33;9.82;;;10.60;99.90;;;;;;7372586;19;20492;-59
2021/09/03 03:45:35;;;;;;;20.27;10.23;;;10.70;99.90;;;;;;7373953;19;20014;-60
2021/09/03 03:48:00;;;;;;;23.10;11.73;;;10.80;99.90;;;;;;7370768;19;20100;-60
2021/09/03 03:50:26;;;;;;;23.92;10.77;;;10.90;99.90;;;;;;7369182;19;20010;-59
2021/09/03 03:52:51;;;;;;;20.10;10.18;;;11.00;99.90;;;;;;7368459;19;20052;-60
2021/09/03 03:55:16;;;;;;;25.48;11.10;;;11.00;99.90;;;;;;7372299;19;20115;-59
2021/09/03 03:57:42;;;;;;;25.55;11.93;;;11.10;99.90;;;;;;7371504;19;20681;-60
2021/09/03 04:00:08;;;;;;;29.92;12.82;;;11.10;99.90;;;;;;7371521;19;20014;-59
2021/09/03 04:02:33;;;;;;;33.95;14.20;;;11.20;99.90;;;;;;7371135;19;20015;-60
2021/09/03 04:04:59;;;;;;;31.98;13.05;;;11.20;99.90;;;;;;7369730;19;20016;-59
2021/09/03 04:07:24;;;;;;;28.27;12.77;;;11.30;99.90;;;;;;7372036;19;20051;-60
2021/09/03 04:09:49;;;;;;;33.65;13.05;;;11.40;99.90;;;;;;7370407;19;20011;-60
2021/09/03 04:12:15;;;;;;;30.77;13.10;;;11.40;99.90;;;;;;7370767;19;20026;-60
2021/09/03 04:14:41;;;;;;;30.13;13.25;;;11.40;99.90;;;;;;7372009;19;20382;-61
2021/09/03 04:17:06;;;;;;;30.38;13.55;;;11.40;99.90;;;;;;7369583;19;20042;-60
2021/09/03 04:19:32;;;;;;;29.75;13.00;;;11.50;99.90;;;;;;7370807;19;20031;-60
2021/09/03 04:21:57;;;;;;;26.10;13.52;;;11.50;99.90;;;;;;7371460;19;20035;-60
2021/09/03 04:24:23;;;;;;;28.38;14.05;;;11.60;99.90;;;;;;7371905;19;20014;-60
2021/09/03 04:26:48;;;;;;;27.55;12.27;;;11.60;99.90;;;;;;7370664;19;21064;-60
2021/09/03 04:29:13;;;;;;;26.23;13.60;;;11.70;99.90;;;;;;7370055;19;20070;-60
2021/09/03 04:31:39;;;;;;;22.98;13.02;;;11.70;99.90;;;;;;7371028;19;20018;-60
2021/09/03 04:34:04;;;;;;;26.60;14.25;;;11.70;99.90;;;;;;7370051;19;20021;-60
2021/09/03 04:36:30;;;;;;;27.77;14.32;;;11.70;99.90;;;;;;7372506;19;20022;-60
2021/09/03 04:38:55;;;;;;;22.73;12.05;;;11.70;99.90;;;;;;7368032;19;20046;-60
2021/09/03 04:41:21;;;;;;;23.00;12.90;;;11.80;99.90;;;;;;7370179;19;20043;-60
2021/09/03 04:43:46;;;;;;;29.38;14.25;;;11.80;99.90;;;;;;7371922;19;20059;-60
2021/09/03 04:46:12;;;;;;;26.63;14.10;;;11.80;99.90;;;;;;7369297;19;20025;-60
2021/09/03 04:48:37;;;;;;;25.70;14.27;;;11.80;99.90;;;;;;7371964;19;20047;-60
2021/09/03 04:51:03;;;;;;;26.45;15.02;;;11.90;99.90;;;;;;7369168;19;20015;-60
2021/09/03 04:53:28;;;;;;;28.73;16.45;;;12.00;99.90;;;;;;7371604;19;21193;-60
2021/09/03 04:55:55;;;;;;;32.20;16.38;;;12.10;99.90;;;;;;7372359;19;20042;-60
2021/09/03 04:58:21;;;;;;;33.03;16.80;;;12.10;99.90;;;;;;7370032;19;20026;-60
2021/09/03 05:00:46;;;;;;;37.75;17.13;;;12.10;99.90;;;;;;7371461;19;20026;-60
2021/09/03 05:03:12;;;;;;;34.35;16.83;;;12.20;99.90;;;;;;7372923;19;20516;-60
2021/09/03 05:05:37;;;;;;;83.47;19.23;;;12.20;99.90;;;;;;7379168;19;20019;-60
2021/09/03 05:08:03;;;;;;;38.75;18.48;;;12.30;99.90;;;;;;7377896;19;20019;-60
2021/09/03 05:10:28;;;;;;;105.13;19.85;;;12.30;99.90;;;;;;7376003;19;20037;-60
2021/09/03 05:12:54;;;;;;;35.92;18.70;;;12.30;99.90;;;;;;7377591;19;20019;-60
2021/09/03 05:15:20;;;;;;;30.33;16.95;;;12.40;99.90;;;;;;7377862;19;20989;-60
2021/09/03 05:17:50;;;;;;;30.20;15.88;;;12.30;99.90;;;;;;7376241;19;20026;-60
2021/09/03 05:20:15;;;;;;;28.30;15.38;;;12.40;99.90;;;;;;7376521;19;20035;-60
2021/09/03 05:22:41;;;;;;;25.60;15.25;;;12.40;99.90;;;;;;7378072;19;20018;-60
2021/09/03 05:25:08;;;;;;;26.42;15.90;;;12.50;99.90;;;;;;7377384;19;20043;-60
2021/09/03 05:27:34;;;;;;;26.67;15.18;;;12.50;99.90;;;;;;7375476;19;20035;-60
2021/09/03 05:29:59;;;;;;;24.45;14.98;;;12.60;99.90;;;;;;7377138;19;20022;-60
2021/09/03 05:32:25;;;;;;;25.17;14.80;;;12.50;99.90;;;;;;7375165;19;20756;-59
2021/09/03 05:34:51;;;;;;;29.58;14.95;;;12.50;99.90;;;;;;7378333;19;20031;-59
2021/09/03 05:37:16;;;;;;;23.95;14.13;;;12.50;99.90;;;;;;7375137;19;20019;-60
2021/09/03 05:39:41;;;;;;;22.30;13.98;;;12.50;99.90;;;;;;7374163;19;20570;-60
2021/09/03 05:42:07;;;;;;;27.00;14.48;;;12.40;99.90;;;;;;7377054;19;20934;-60
2021/09/03 05:44:32;;;;;;;23.65;13.75;;;12.40;99.90;;;;;;7377208;19;20010;-60
2021/09/03 05:46:58;;;;;;;22.13;13.50;;;12.50;99.90;;;;;;7376385;19;20022;-60
2021/09/03 05:49:23;;;;;;;27.73;13.88;;;12.50;99.90;;;;;;7375667;19;20023;-60
2021/09/03 05:51:49;;;;;;;21.75;14.18;;;12.50;99.90;;;;;;7376837;19;20491;-60
2021/09/03 05:54:14;;;;;;;23.85;13.68;;;12.50;99.90;;;;;;7373192;19;20034;-60
2021/09/03 05:56:40;;;;;;;27.67;15.57;;;12.50;99.90;;;;;;7376273;19;20869;-60
2021/09/03 05:59:05;;;;;;;28.10;16.08;;;12.60;99.90;;;;;;7374200;19;20042;-60
2021/09/03 06:01:31;;;;;;;33.20;16.48;;;12.60;99.90;;;;;;7374405;19;20026;-60
2021/09/03 06:03:56;;;;;;;30.00;16.80;;;12.70;99.90;;;;;;7376096;19;20062;-60
2021/09/03 06:06:22;;;;;;;32.80;17.23;;;12.70;99.90;;;;;;7375734;19;20911;-60
2021/09/03 06:08:49;;;;;;;31.23;16.52;;;12.80;99.90;;;;;;7374559;19;20031;-60
2021/09/03 06:11:14;;;;;;;30.58;18.13;;;12.80;99.90;;;;;;7376727;19;20022;-59
2021/09/03 06:13:40;;;;;;;34.33;18.13;;;12.90;99.90;;;;;;7373641;19;20062;-60
2021/09/03 06:16:05;;;;;;;35.63;18.92;;;13.00;99.90;;;;;;7376949;19;20514;-60
2021/09/03 06:18:30;;;;;;;35.83;19.70;;;13.10;99.90;;;;;;7372315;19;20015;-60
2021/09/03 06:20:56;;;;;;;33.60;17.98;;;13.20;99.90;;;;;;7376535;19;20030;-59
2021/09/03 06:23:21;;;;;;;38.00;20.55;;;13.20;99.90;;;;;;7374558;19;20053;-60
2021/09/03 06:25:47;;;;;;;36.53;19.20;;;13.40;99.90;;;;;;7376823;19;20022;-60
2021/09/03 06:28:12;;;;;;;30.80;17.50;;;13.40;99.90;;;;;;7375380;19;20113;-60
2021/09/03 06:30:38;;;;;;;30.48;19.60;;;13.40;99.90;;;;;;7371855;19;20014;-60
2021/09/03 06:33:03;;;;;;;34.33;17.80;;;13.50;99.90;;;;;;7375487;19;20018;-60
2021/09/03 06:35:29;;;;;;;36.05;18.95;;;13.50;99.90;;;;;;7376318;19;20027;-60
2021/09/03 06:37:54;;;;;;;28.88;16.88;;;13.90;99.90;;;;;;7373643;19;20038;-60
2021/09/03 06:40:20;;;;;;;33.75;18.77;;;13.70;99.90;;;;;;7375504;19;20014;-60
2021/09/03 06:42:46;;;;;;;31.80;17.98;;;13.80;99.90;;;;;;7373924;19;20499;-59
2021/09/03 06:45:12;;;;;;;30.90;17.40;;;;;;;;;;7373762;19;20105;-59
2021/09/03 06:47:37;;;;;;;33.55;18.33;;;14.00;99.90;;;;;;7373694;19;20152;-60
2021/09/03 06:50:03;;;;;;;31.10;16.70;;;14.10;99.90;;;;;;7375243;19;20139;-60
2021/09/03 06:52:28;;;;;;;36.88;18.90;;;14.10;99.90;;;;;;7371229;19;20029;-60
2021/09/03 06:54:54;;;;;;;36.85;19.60;;;14.40;99.90;;;;;;7374659;19;20034;-60
2021/09/03 06:57:19;;;;;;;42.75;24.17;;;14.50;99.90;;;;;;7374983;19;20593;-59
2021/09/03 06:59:45;;;;;;;31.60;17.88;;;;;;;;;;7371019;19;20053;-59
2021/09/03 07:02:12;;;;;;;35.70;19.20;;;15.50;99.90;;;;;;7374746;19;20018;-59
2021/09/03 07:04:38;;;;;;;34.22;17.67;;;13.50;99.90;;;;;;7372740;19;20406;-59
2021/09/03 07:07:04;;;;;;;42.33;18.70;;;;;;;;;;7372669;19;20014;-59
2021/09/03 07:09:29;;;;;;;34.80;17.73;;;15.10;99.90;;;;;;7372153;19;20539;-60
2021/09/03 07:11:55;;;;;;;36.17;20.23;;;15.30;99.90;;;;;;7372526;19;20025;-59
2021/09/03 07:14:20;;;;;;;33.83;19.55;;;15.30;99.90;;;;;;7371656;19;20026;-59
2021/09/03 07:16:46;;;;;;;40.58;21.63;;;15.50;99.90;;;;;;7373704;19;20392;-59
2021/09/03 07:19:11;;;;;;;36.42;21.65;;;15.50;99.90;;;;;;7371530;19;20022;-59
2021/09/03 07:21:37;;;;;;;34.95;19.83;;;15.60;99.90;;;;;;7371321;19;20025;-60
2021/09/03 07:24:02;;;;;;;38.17;19.17;;;16.00;99.90;;;;;;7373372;19;20653;-59
2021/09/03 07:26:28;;;;;;;75.43;23.00;;;;;;;;;;7369049;19;20030;-60
2021/09/03 07:28:55;;;;;;;37.65;17.08;;;;;;;;;;7370487;19;20657;-66
2021/09/03 07:31:21;;;;;;;60.83;20.30;;;;;;;;;;7374831;19;20102;-60
2021/09/03 07:33:47;;;;;;;33.92;16.60;;;;;;;;;;7356479;19;20010;-60
2021/09/03 07:36:12;;;;;;;31.33;18.20;;;16.80;99.90;;;;;;7376694;19;20023;-60
2021/09/03 07:38:38;;;;;;;29.73;16.02;;;16.30;99.90;;;;;;7375242;19;20030;-60
2021/09/03 07:41:04;;;;;;;32.05;15.73;;;16.90;99.90;;;;;;7369695;19;20021;-60
2021/09/03 07:43:30;;;;;;;58.70;18.27;;;;;;;;;;7373488;19;20085;-60
2021/09/03 07:45:56;;;;;;;28.85;16.48;;;17.40;99.90;;;;;;7372551;19;20107;-60
2021/09/03 07:48:21;;;;;;;34.78;17.23;;;18.00;99.90;;;;;;7372376;19;20022;-60
2021/09/03 07:50:47;;;;;;;36.10;15.25;;;;;;;;;;7372065;19;20022;-60
2021/09/03 07:53:13;;;;;;;28.50;15.25;;;17.80;99.90;;;;;;7371120;19;20345;-60
2021/09/03 07:55:39;;;;;;;25.90;14.52;;;18.10;99.90;;;;;;7373097;19;20022;-61
2021/09/03 07:58:04;;;;;;;27.48;13.75;;;18.50;99.90;;;;;;7370436;19;20480;-63
2021/09/03 08:00:30;;;;;;;29.83;13.80;;;18.50;99.90;;;;;;7371073;19;20526;-60
2021/09/03 08:02:55;;;;;;;27.48;13.10;;;18.60;99.90;;;;;;7369604;19;20031;-60
2021/09/03 08:05:21;;;;;;;26.23;12.10;;;18.80;99.90;;;;;;7371707;19;20029;-60
2021/09/03 08:07:46;;;;;;;30.45;12.95;;;19.00;99.90;;;;;;7372141;19;20037;-66
2021/09/03 08:10:12;;;;;;;25.95;11.73;;;19.20;99.90;;;;;;7370951;19;20038;-66
2021/09/03 08:12:37;;;;;;;25.63;12.48;;;19.20;99.90;;;;;;7372470;19;20018;-67
2021/09/03 08:15:03;;;;;;;22.00;11.75;;;19.50;99.90;;;;;;7373283;19;20478;-67
2021/09/03 08:17:28;;;;;;;24.48;11.75;;;19.50;99.90;;;;;;7372557;19;20015;-67
2021/09/03 08:19:54;;;;;;;22.98;11.50;;;19.60;99.90;;;;;;7371375;19;20011;-67
2021/09/03 08:22:19;;;;;;;24.70;11.30;;;19.70;99.90;;;;;;7371038;19;20018;-67
2021/09/03 08:24:45;;;;;;;27.30;11.95;;;20.10;99.90;;;;;;7372752;19;20029;-67
2021/09/03 08:27:11;;;;;;;20.17;10.82;;;20.20;99.90;;;;;;7369202;19;20019;-67
2021/09/03 08:29:36;;;;;;;17.25;9.40;;;20.30;99.90;;;;;;7371306;19;20018;-67
2021/09/03 08:32:02;;;;;;;25.67;9.80;;;20.30;99.90;;;;;;7370957;19;20019;-67
2021/09/03 08:34:27;;;;;;;19.05;9.30;;;20.20;99.90;;;;;;7371229;19;20690;-67
2021/09/03 08:36:53;;;;;;;16.58;9.40;;;20.20;99.90;;;;;;7373314;19;20118;-67
2021/09/03 08:39:19;;;;;;;21.58;9.75;;;20.20;99.90;;;;;;7375031;19;20018;-67
2021/09/03 08:41:44;;;;;;;18.92;9.15;;;20.50;99.90;;;;;;7379126;19;20018;-66
2021/09/03 08:44:10;;;;;;;18.27;9.18;;;20.90;99.90;;;;;;7376151;19;20010;-67
2021/09/03 08:46:35;;;;;;;23.33;10.65;;;21.00;99.90;;;;;;7378415;19;20026;-67
2021/09/03 08:49:01;;;;;;;18.52;8.88;;;21.00;99.90;;;;;;7378087;19;20010;-68
2021/09/03 08:51:26;;;;;;;21.10;10.10;;;21.30;99.90;;;;;;7377297;19;20029;-66
2021/09/03 08:53:52;;;;;;;21.77;10.50;;;21.30;99.90;;;;;;7376997;19;20039;-67
2021/09/03 08:56:17;;;;;;;22.23;10.60;;;21.40;99.90;;;;;;7378411;19;20026;-67
2021/09/03 08:58:43;;;;;;;17.80;9.55;;;21.50;99.90;;;;;;7375584;19;20022;-67
2021/09/03 09:01:08;;;;;;;21.88;9.65;;;21.90;99.90;;;;;;7379172;19;20060;-67
2021/09/03 09:03:34;;;;;;;17.05;9.32;;;21.60;99.90;;;;;;7374381;19;20612;-67
2021/09/03 09:05:59;;;;;;;21.02;8.05;;;21.60;99.90;;;;;;7379552;19;20437;-67
2021/09/03 09:08:25;;;;;;;17.15;8.82;;;21.60;99.90;;;;;;7377126;19;20010;-67
2021/09/03 09:10:50;;;;;;;21.67;8.25;;;21.60;99.90;;;;;;7375553;19;21040;-67
2021/09/03 09:13:16;;;;;;;20.25;9.27;;;21.70;99.90;;;;;;7376508;19;20672;-67
2021/09/03 09:15:42;;;;;;;32.15;12.40;;;;;;;;;;7376611;19;20038;-67
2021/09/03 09:18:08;;;;;;;18.70;8.20;;;;;;;;;;7375973;19;20031;-67
2021/09/03 09:20:34;;;;;;;18.92;8.38;;;22.30;99.90;;;;;;7376291;19;20082;-67
2021/09/03 09:23:00;;;;;;;13.75;7.50;;;22.30;99.90;;;;;;7368596;19;20010;-67
2021/09/03 09:25:25;;;;;;;25.75;9.40;;;22.40;99.90;;;;;;7375357;19;20018;-67
2021/09/03 09:27:51;;;;;;;16.42;7.63;;;;;;;;;;7372676;19;20036;-67
2021/09/03 09:30:17;;;;;;;15.35;7.20;;;22.60;99.90;;;;;;7374675;19;20022;-68
2021/09/03 09:32:42;;;;;;;15.93;7.85;;;22.60;99.90;;;;;;7371671;19;20029;-67
2021/09/03 09:35:08;;;;;;;13.48;7.00;;;22.90;99.90;;;;;;7373963;19;20010;-67
2021/09/03 09:37:33;;;;;;;14.07;7.40;;;22.90;99.90;;;;;;7370923;19;20015;-67
2021/09/03 09:39:59;;;;;;;14.68;7.13;;;23.00;99.90;;;;;;7370968;19;20026;-67
2021/09/03 09:42:27;;;;;;;16.60;6.95;;;23.00;99.90;;;;;;7375175;19;20034;-67
2021/09/03 09:44:52;;;;;;;16.45;6.97;;;23.10;99.90;;;;;;7375561;19;20041;-67
2021/09/03 09:47:18;;;;;;;16.33;7.28;;;23.30;99.90;;;;;;7373874;19;20041;-67
2021/09/03 09:49:43;;;;;;;14.80;6.80;;;23.50;99.90;;;;;;7371881;19;20022;-70
2021/09/03 09:52:09;;;;;;;17.20;6.63;;;23.40;99.90;;;;;;7372400;19;20011;-71
2021/09/03 09:54:34;;;;;;;15.25;7.15;;;23.60;99.90;;;;;;7373876;19;20025;-70
2021/09/03 09:57:00;;;;;;;14.45;7.30;;;23.70;99.90;;;;;;7374937;19;20777;-71
2021/09/03 09:59:25;;;;;;;15.70;7.45;;;23.90;99.90;;;;;;7373101;19;20022;-70
2021/09/03 10:01:51;;;;;;;18.17;8.43;;;23.70;99.90;;;;;;7373095;19;20007;-70
2021/09/03 10:04:16;;;;;;;17.10;7.65;;;23.60;99.60;;;;;;7372235;19;20029;-70
2021/09/03 10:06:42;;;;;;;17.40;8.02;;;23.70;99.90;;;;;;7375547;19;20035;-71
2021/09/03 10:09:08;;;;;;;13.57;7.82;;;23.90;99.90;;;;;;7374026;19;20015;-70
2021/09/03 10:11:33;;;;;;;16.33;8.05;;;23.80;99.90;;;;;;7374011;19;20053;-71
2021/09/03 10:13:59;;;;;;;18.35;8.10;;;23.80;99.90;;;;;;7373935;19;20116;-69
2021/09/03 10:16:24;;;;;;;18.23;7.32;;;23.80;99.90;;;;;;7372877;19;20401;-70
2021/09/03 10:18:50;;;;;;;17.80;9.23;;;23.80;99.90;;;;;;7372806;19;20015;-68
2021/09/03 10:21:16;;;;;;;17.85;8.45;;;23.80;99.90;;;;;;7372424;19;20030;-70
2021/09/03 10:23:41;;;;;;;25.25;7.63;;;23.70;99.90;;;;;;7371847;19;20552;-69
2021/09/03 10:26:07;;;;;;;15.02;7.28;;;23.70;99.80;;;;;;7375480;19;20018;-70
2021/09/03 10:28:32;;;;;;;13.68;6.68;;;23.70;99.40;;;;;;7371877;19;20042;-70
2021/09/03 10:30:58;;;;;;;16.27;6.88;;;23.80;99.90;;;;;;7372498;19;20010;-69
2021/09/03 10:33:23;;;;;;;20.52;8.68;;;23.80;99.90;;;;;;7371157;19;21066;-69
2021/09/03 10:35:49;;;;;;;20.50;8.07;;;24.00;99.90;;;;;;7374335;19;20022;-69
2021/09/03 10:38:14;;;;;;;14.88;8.25;;;24.00;99.30;;;;;;7374282;19;20022;-68
2021/09/03 10:40:40;;;;;;;21.02;9.85;;;24.10;99.30;;;;;;7372644;19;20025;-69
2021/09/03 10:43:05;;;;;;;24.48;15.07;;;24.00;99.30;;;;;;7375521;19;20028;-69
2021/09/03 10:45:31;;;;;;;21.48;7.50;;;23.90;99.90;;;;;;7373702;19;20014;-69
2021/09/03 10:47:56;;;;;;;14.43;7.50;;;24.20;99.90;;;;;;7374569;19;20014;-69
2021/09/03 10:50:22;;;;;;;16.15;7.40;;;24.30;99.60;;;;;;7372838;19;20428;-69
2021/09/03 10:52:47;;;;;;;14.23;6.97;;;24.50;99.30;;;;;;7372703;19;20021;-70
2021/09/03 10:55:13;;;;;;;16.48;6.90;;;24.40;99.10;;;;;;7375596;19;20081;-69
2021/09/03 10:57:38;;;;;;;16.02;6.85;;;24.40;99.30;;;;;;7373651;19;20023;-69
2021/09/03 11:00:04;;;;;;;12.23;6.53;;;24.60;98.30;;;;;;7370534;19;20090;-69
2021/09/03 11:02:29;;;;;;;14.18;6.95;;;24.70;98.70;;;;;;7374167;19;20895;-69
2021/09/03 11:04:55;;;;;;;15.07;7.43;;;24.70;97.70;;;;;;7373098;19;20794;-68
2021/09/03 11:07:20;;;;;;;12.55;6.40;;;24.70;97.60;;;;;;7374002;19;20078;-69
2021/09/03 11:09:46;;;;;;;9.15;5.82;;;24.50;97.70;;;;;;7372134;19;20018;-69
2021/09/03 11:12:12;;;;;;;13.80;6.15;;;24.60;98.40;;;;;;7372652;19;20014;-69
2021/09/03 11:14:39;;;;;;;14.43;6.70;;;24.60;97.80;;;;;;7374052;19;20021;-69
2021/09/03 11:17:05;;;;;;;17.45;7.07;;;24.40;97.30;;;;;;7371895;19;20014;-68
2021/09/03 11:19:32;;;;;;;16.08;7.05;;;24.20;99.20;;;;;;7370790;19;20531;-68
2021/09/03 11:21:58;;;;;;;17.02;7.13;;;24.40;98.40;;;;;;7372058;19;20538;-69
2021/09/03 11:24:23;;;;;;;15.82;6.45;;;24.40;98.20;;;;;;7371075;19;20010;-67
2021/09/03 11:26:49;;;;;;;10.95;6.32;;;24.60;98.40;;;;;;7375231;19;20043;-67
2021/09/03 11:29:14;;;;;;;13.27;6.22;;;24.90;97.80;;;;;;7369615;19;20415;-67
2021/09/03 11:31:40;;;;;;;10.80;5.90;;;24.90;96.60;;;;;;7372141;19;20400;-67
2021/09/03 11:34:07;;;;;;;12.35;5.50;;;25.20;96.40;;;;;;7370574;19;20014;-67
2021/09/03 11:36:33;;;;;;;16.05;6.15;;;25.60;96.90;;;;;;7374200;19;20026;-68
2021/09/03 11:38:58;;;;;;;8.65;5.20;;;25.70;95.20;;;;;;7371307;19;20014;-68
2021/09/03 11:41:24;;;;;;;17.30;6.25;;;25.80;96.40;;;;;;7372925;19;20019;-67
2021/09/03 11:43:49;;;;;;;10.73;5.32;;;26.20;94.60;;;;;;7374632;19;20632;-67
2021/09/03 11:46:15;;;;;;;11.88;5.28;;;26.30;95.50;;;;;;7375069;19;20018;-69
2021/09/03 11:48:41;;;;;;;8.65;4.38;;;26.40;96.00;;;;;;7376024;19;20023;-67
2021/09/03 11:51:06;;;;;;;10.68;5.38;;;26.90;94.60;;;;;;7376721;19;20014;-68
2021/09/03 11:53:33;;;;;;;11.70;5.13;;;27.10;94.10;;;;;;7369126;19;20022;-67
2021/09/03 11:55:59;;;;;;;7.72;4.55;;;27.80;92.70;;;;;;7371172;19;20021;-68
2021/09/03 11:58:24;;;;;;;10.52;4.70;;;27.80;92.20;;;;;;7371652;19;20053;-68
2021/09/03 12:00:50;;;;;;;9.82;4.53;;;27.60;92.90;;;;;;7372499;19;20753;-68
2021/09/03 12:03:15;;;;;;;9.30;4.95;;;28.00;92.90;;;;;;7371327;19;20491;-67
2021/09/03 12:05:41;;;;;;;9.15;4.50;;;28.60;90.90;;;;;;7372338;19;20007;-68
2021/09/03 12:08:06;;;;;;;8.50;4.63;;;28.80;90.70;;;;;;7370423;19;20031;-67
2021/09/03 12:10:32;;;;;;;15.30;5.80;;;28.60;88.90;;;;;;7369671;19;20094;-68
2021/09/03 12:12:58;;;;;;;10.48;4.65;;;27.80;91.00;;;;;;7368925;19;20090;-67
2021/09/03 12:15:23;;;;;;;10.02;4.93;;;27.50;91.90;;;;;;7368940;19;20010;-67
2021/09/03 12:17:49;;;;;;;7.40;4.85;;;27.40;91.90;;;;;;7371166;19;20019;-67
2021/09/03 12:20:14;;;;;;;12.27;5.10;;;27.20;91.80;;;;;;7368602;19;20042;-68
2021/09/03 12:22:40;;;;;;;11.57;5.35;;;27.10;91.40;;;;;;7370998;19;20014;-67
2021/09/03 12:25:05;;;;;;;13.90;5.35;;;27.00;91.60;;;;;;7371505;19;20010;-68
2021/09/03 12:27:31;;;;;;;9.20;4.68;;;26.90;91.40;;;;;;7371485;19;20032;-67